© 2014 by Franz.Schwengler www.schwengler.de / impressum

Lauftermine in Mittelfranken und Umgebung 2014/2015

(Termin-Infos bitte mailen an: Franz.Schwengler@Planet-Marathon.de)
         
Datum Diskussionsforum: Lauftreff-Franken Forum PLZ Ort Strecken in km
         
  auf Facebook: LAUF NORIS LAUF - Franken rennt      
         
  2014      
         
Oktober        
03.10.2014 19. Nürnberger Stadtlauf 90403 Nürnberg 21,1 / 10,5 / 6,0
03.10.2014 5. Feuchtwangener Kreuzganglauf Altstadtlauf 91555 Feuchtwangen 10,0 / 3,3
03.10.2014 3. Tempel Marathon Etsdorf (nur 38,5 km !) 92272 Etsdorf 38,5 / 19,9
03.10.2014 10. Medical Park Marathon ...grenzenlos im Rodachtal 96476 Bad Rodach 42,2 / 21,1
04.10.2014 1. Hammer Run in Auerbach 91275 Auerbach 14,0 / 5,0
04.10.2014 7. Hofer "Park und See Lauf" 95032 Hof 21,1 / 10,0
04.10.2014 8. Ritter-Kuno-Stadtlauf 96224 Burgkunstadt 11,0 / 6,6
05.10.2014 9. Rosstaler Erntedanklauf 90574 Roßtal 8,5
11.10.2014 12. Herbstlauf-Schloss-Thurn 91336 Heroldsbach 21,1 /7,0
11.10.2014 21. Obernzenner-Seelauf 91619 Obernzenn 8,7
11.10.2014 5. Weidener Fischerberg-Halbmarathon 92637 Weiden 21,1 / 13,0
11.10.2014 19. Abt-Degen-Lauf Zeil 97475 Zeil 11,0
12.10.2014 31. Fürther Kärwa-Lauf 90766 Fürth 7,5
12.10.2014 23. RIBE Schwabacher Citylauf 91126 Schwabach 21,1 / 10,0
17.10.2014 3. Fürther Fackellauf 90762 Fürth 8,0 / 2,0
18.10.2014 10. Jura2000 Halbmarathon 91171 Greding 21,1 / 11,0
18.10.2014 29. Steigerwald-Fackellauf 96152 Burghaslach 7,8
19.10.2014 1. Erlanger Lauf gegen Krebs 91058 Erlangen Spenden-Lauf
19.10.2014 5. Gundelsheimer Herbstlauf 96163 Gundelsheim 10,0 / 5,0
25.10.2014 1. Lauf der Crosslaufserie 2014 91604 Flachslanden 7,7
25.10.2014 28. Frankenwald-Lauf 95364 Ludwigschorgast 12,0
26.10.2014 30. DÖNÜS 2-Stundenlauf 90449 Nürnberg 2-Stunden
November        
01.11.2014 11. Sparkassen-Nachtlauf Neustadt/Aisch 91413 Neustadt/Aisch 9,8 / 4,3
01.11.2014 8. Sparkassen Lichterlauf 91541 Rothenburg o.d. Tauber 8,0 / 4,0
02.11.2014 20. Großhabersdorfer Bibertlauf 90613 Großhabersdorf 13,0 / 7,5
08.11.2014 10. TÜV Rheinland Indoor-Marathon Nürnberg 90431 Nürnberg 42,2 / 21,1
08.11.2014 75. Büchenbacher Waldlauf 91186 Büchenbach 11,6
08.11.2014 32. Feuchtwanger Crosslauf 91555 Feuchtwangen 8,8 / 3,8
08.11.2014 11. Amberger Ultra-Lauf (AULA 2013) 92224 Amberg Etappenlauf
08.11.2014 28. Staffelberglauf Bad Staffelstein 96231 Bad Staffelstein 3,96
08.11.2014 11. Zeiler Waldmarathon 97475 Zeil 42,2 / 21,1
09.11.2014 16. TGK Lebkuchenlauf 97318 Kitzingen 10,0
15.11.2014 10. infinity-sport Kunstweglauf Rednitzhembach 91126 Rednitzhembach 10,0 / 5,5
16.11.2014 1. Winterlaufserie am Nürnberger Dutzendteich 90403 Nürnberg 10,0
22.11.2014 Crosslauf des TSV Rohr3. Lauf zur Crossserie BLV-Kreis Mittelfranken-Süd 91189 Rohr 9,4
23.11.2014 30. Memmelsdorfer Schlosslauf 96117 Memmelsdorf 9,6
30.11.2014 12. Run & Bike Ungerthal 91186 Büchenbach 17,0
Dezember        
06.12.2014 38. Forchheimer Nikolaus-Lauf 91301 Forchheim 10,0 / 5,3
06.12.2014 Dinkelsbühler Wald- und Crosslauf 91550 Dinkelsbühl 10,4 / 3,5
07.12.2014 1. Winterlaufserie am Nürnberger Dutzendteich 90403 Nürnberg 16,0
07.12.2014 30. 100-km-Nikolauslauf in Selb 95100 Selb 100,0 / 10,0
07.12.2014 33. Nikolauslauf in Ochsenfurt 97199 Ochsenfurt 7,5
13.12.2014 2. SoWiso Run & Fit Nikolauslauf 91486 Uehlfeld 7,5
26.12.2014 33. Nürnberger Trainingsmarathon 90409 Nürnberg 1,523 - 42,195
29.12.2014 32. Schneyer Silvesterlauf 96125 Lichtenfels/Schney 8,0
31.12.2014 12. Nürnberger Silvesterlauf 90403 Nürnberg 10,0 / 5,0
31.12.2014 7. Pleinfelder Silvesterlauf 91785 Pleinfeld 9,5 / 5,1
31.12.2014 25. Amberger Silvesterlauf 92224 Amberg Amberg 7,5 / 5,0
31.12.2014 34. Seubersdorfer Silvesterlauf 92358 Seubersdorf 9,4 / 5,6
31.12.2014 4. Silvesterlauf Bad Staffelstein 96231 Bad Staffelstein 10,0 / 5,0
         
  2015      
Januar        
04.01.2015 11. Coburger Wintermarathon (ohne Zeitnahme) 96450 Coburg 42,195
04.01.2015 8. 8er-Lauf der DJK Schweinfurt 97424 Schweinfurt 10,8 / 5,4
06.01.2015 28. Kersbacher Dreikönigslauf 91301 Kersbach 12,0 / 6,0
06.01.2015 6. Sparkassen Neujahrs-Teamlauf 96450 Coburg 34,0 / 21,1 / 10,0
10.01.2015 25. Stau-Stufen-Lauf 97753 Karlstadt 15,0 / 7,5
18.01.2015 14. Dinkelsbühler Stadtlauf (Winterlauf) 91550 Dinkelsbühl 10,0 / 5,0
24.01.2015 1. Winterlaufserie am Nürnberger Dutzendteich 90403 Nürnberg 21,1
25.01.2015 55. Prellstein-Rennen in Heuchling 91224 Heuchling (Pommelsbrunn) 12,0 / 4,0
Februar        
01.02.2015 7. Winterlauf Challenge Lauf 1 am Steinberger See 92449 Steinberg am See 10,0
01.02.2015 22. Johannesbad Thermen-Marathon 94072 Bad Füssing 42,2 / 21,1 / 10,0
22.02.2015 7. Winterlauf Challenge Lauf 2 am Murner See 92442 Wackersdorf/Villa Murano 15,0
März        
07.03.2015 19. Selbst-Transzendenz Sechs-Stunden-Lauf 90403 Nürnberg 6-Stunden-Lauf
07.03.2015 6. BraveheartBattle Extrem-Hindernislauf 97702 Münnerstadt 26,0
08.03.2015 22. Rothseelauf 90584 Allersberg - Birkach 10,4 / 5,2
14.03.2015 6. Post-SV Frühjahrslauf 90411 Nürnberg 10,0 / 5,0
15.03.2015 5. Welt Down Syndrom Tag Marathon (mit 6-Stunden-Lauf) 90763 Fürth 42,2 / 21,1
15.03.2015 6. Kaiserdomlauf Bamberg 96049 Bamberg Bamberg 10,0 / 5,0
28.03.2015 6. Saaletal-Marathon in Ramsthal 97729 Ramsthal 42,2 / 21,1 / 10,0
29.03.2015 7. Winterlauf Challenge Lauf 3 am Murner See 92442 Wackersdorf/Villa Murano 21,1
29.03.2015 16. 100km-(Staffel-)Lauf 93309 Kelheim Staffel-Lauf
April        
12.04.2015 11. Obermain Marathon Bad Staffelstein 96231 Bad Staffelstein 42,2 / 21,1
18.04.2015 5. IFB HiRo Run 21.1 91161 Hilpoltstein 21,1
18.04.2015 14. Dreiburgenland-Marathon 94169 Thumannsbang 42,2 / 21,1 / 12,5
25.04.2015 2. Sparkassen-NightRun Coburg 96450 Coburg 10,5 / 4,2
26.04.2015 13. Fürthlauf 90762 Fürth 10,0
26.04.2015 27. Würzburger Residenzlauf 97070 Würzburg 10,0 / 5,0
Mai        
01.05.2015 8. Moritzberglauf des Ski Club Lauf 91207 Lauf 10,0
03.05.2015 7. Bamberger Weltkulturerbe-Lauf 96052 Bamberg 21,1 / 10,9
09.05.2015 3. Erlanger Benefizlauf 91058 Erlangen Spenden-Lauf
14.05.2015 1. Charity-Lauf in Herzogenaurach 91074 Herzogenaurach 7-Std.-Lauf
16.05.2015 23. WUDL Frühjahrslauf 90451 Nürnberg 4,9
17.05.2015 6. Run & Bike" (Bayern-Rundfahrt Finale) 90409 Nürnberg 15,0 / 10,0
17.05.2015 24. IZ Marathon Regensburg 93001 Regensburg 42,2 / 21,1 / 10,5
16.05.2015 26. Steinachtal-Lauf 95346 Stadtsteinach 16,0 / 6,0
17.05.2015 15. iWelt-Marathon Würzburg 97070 Würzburg 42,2 / 21,1
Juni        
14.06.2015 2. Deutsche Post Ladies Run 90403 Nürnberg 10,0 / 5,0
14.06.2015 7. Frankenweg-Marathon 91286 Obertrubach 42,2 / 24,0 / 15,0
20.06.2015 6. Fürther Hobbylauf 90762 Fürth 5,0
21.06.2015 9. Metropolmarathon Fürth 90762 Fürth 42,2 / 21,1 / 10,0
Juli        
05.07.2015 28. Altdorfer Wallenstein Halbmarathon 90518 Altdorf 21,1 / 12,1
11.07.2015 3. Challenge Woman 5km Lauf und Walk 91143 Roth 5,0
12.07.2015 14. DATEV Challenge Roth (mit Marathon in der Staffel) 91143 Roth 42,195
18.07.2015 21. Altmühlsee-Halbmarathon 91710 Gunzenhausen-Unterwurmbach 21,1 / 7,4
21.07.2015 5. B2RUN Nürnberg (11. Firmenlauf der Metropolregion Nürnberg) 90409 Nürnberg 6,0
25.07.2015 5. Fürther Gourmet-Lauf 90768 Fürth 10,0
August        
24.08.2014 2. Nürnberger Halbmarathon (ehem. Finish Line Herbstlauf) 90403 Nürnberg 21,1 / 10,0
September        
11.09.2015 12. Erlanger Nachtlauf 91054 Erlangen 11,7 / 7,8 / 3,9
12.09.2015 29. Erlangen Arcaden-Lauf in die Mönau 91056 Erlangen 10,0 / 5,0
         
www.schwengler.de

Mit Urteil vom 12. Mai 1998 hat das Landgericht Hamburg entschieden, dass man durch die Ausbringung eines Links die Inhalte der gelinkten Seite ggf. mit zu verantworten hat. Dies kann - so das Landesgericht - nur dadurch verhindert werden, dass man sich ausdrücklich von diesen Inhalten distanziert. Wir haben auf unserer Seite Links zu anderen Seiten im Internet gelegt. Für all diese Links gilt: Wir möchten ausdrücklich betonen, dass wir keinerlei Einfluss auf die Gestaltung und die Inhalte der gelinkten Seiten haben. Deshalb distanzieren wir uns hiermit ausdrücklich von allen Inhalten der gelinkten Seiten und wir machen uns deren Inhalte nicht zu Eigen. Diese Erklärung gilt für alle auf unserer Seite ausgebrachten Links.